Nearby METAR Reports

 

KCFV - Coffeyville, Kansas, USA
Distance from station: ENE 93mi, 150km
Updated: Wed, 29-Mar-2017 8:52pm CDT
Clear
Clear
 Wind from SW
Wind: SW 14 mph , 22 km/h
Temperature: 57°F , 14°C
Dew Point: 48°F , 9°C
Humidity: 72%
Barometer: 1004.7 hPa
Clouds: Clear
Visibility: 10 miles , 16 km
2017/03/30 01:52 KCFV 300152Z AUTO 23012KT 10SM CLR 14/09 A2967 RMK AO2 SLP045 T01390089
KIDP - Independence, Kansas, USA
Distance from station: NE 86mi, 138km
Updated: Wed, 29-Mar-2017 9:35pm CDT
Clear
Clear
 Wind from SW
Wind: SW 21 mph , 33 km/h, Gust: 28 mph , 44 km/h
Temperature: 52°F , 11°C
Dew Point: 43°F , 6°C
Humidity: 72%
Barometer: 1004.7 hPa
Clouds: Clear
Visibility: 10 miles , 16 km
2017/03/30 02:35 KIDP 300235Z AUTO 23018G24KT 10SM CLR 11/06 A2967 RMK AO2 LTG DSNT NE
KIAB - Mcconnell Afb, Kansas, USA
Distance from station: N 84mi, 135km
Updated: Wed, 29-Mar-2017 9:37pm CDT
Overcast
Overcast
 Wind from NW
Wind: NW 16 mph , 26 km/h, Gust: 21 mph , 33 km/h
Temperature: 46°F , 8°C
Wind Chill: 39°F , 4°C
Dew Point: 45°F , 7°C
Humidity: 93%
Barometer: 1002.7 hPa
Clouds: Overcast
Visibility: 10 miles , 16 km
Cloud details: Overcast 500 ft
2017/03/30 02:37 KIAB 300237Z AUTO 32014G18KT 10SM OVC005 08/07 A2961 RMK AO2 RAE32 SLP029
 
KICT - Wichita, Kansas, USA
Distance from station: NNW 88mi, 142km
Updated: Wed, 29-Mar-2017 8:53pm CDT
Overcast
Overcast
 Wind from NNW
Wind: NNW 21 mph , 33 km/h
Temperature: 46°F , 8°C
Wind Chill: 38°F , 3°C
Dew Point: 45°F , 7°C
Humidity: 93%
Barometer: 1002.7 hPa
Clouds: Overcast
Visibility: 10 miles , 16 km
Cloud details: Overcast 600 ft
2017/03/30 01:53 KICT 300153Z 33018KT 10SM OVC006 08/07 A2961 RMK AO2 WSHFT 0048 RAE43 SLP025 P0000 T00780072
KAAO - Wichita/Jabara, Kansas, USA
Distance from station: N 93mi, 149km
Updated: Wed, 29-Mar-2017 9:25pm CDT
Overcast
Overcast
 Wind from NW
Wind: NW 15 mph , 24 km/h
Temperature: 46°F , 8°C
Wind Chill: 40°F , 4°C
Dew Point: 46°F , 8°C
Humidity: 100%
Barometer: 1002.4 hPa
Clouds: Overcast
Visibility: 10 miles , 16 km
Cloud details: Overcast 500 ft
2017/03/30 02:25 KAAO 300225Z AUTO 32013KT 10SM OVC005 08/08 A2960 RMK AO2 RAE09 P0000 T00830078
KWLD - Winfield/Arkansa, Kansas, USA
Distance from station: N 52mi, 84km
Updated: Wed, 29-Mar-2017 8:54pm CDT
Overcast
Overcast
 Wind from WSW
Wind: WSW 18 mph , 30 km/h, Gust: 25 mph , 41 km/h
Temperature: 48°F , 9°C
Wind Chill: 41°F , 5°C
Dew Point: 46°F , 8°C
Humidity: 94%
Barometer: 1003.7 hPa
Clouds: Overcast
Visibility: 10 miles , 16 km
Cloud details: Overcast 800 ft
2017/03/30 01:54 KWLD 300154Z AUTO 24016G22KT 10SM OVC008 09/08 A2964 RMK AO2 PK WND 23028/0106 SLP034 T00890078
 
KAVK - Alva, Oklahoma, USA
Distance from station: WNW 94mi, 152km
Updated: Wed, 29-Mar-2017 9:35pm CDT
Overcast
Overcast
 Wind from NW
Wind: NW 18 mph , 30 km/h, Gust: 26 mph , 43 km/h
Temperature: 45°F , 7°C
Wind Chill: 37°F , 3°C
Dew Point: 41°F , 5°C
Humidity: 87%
Barometer: 1008.5 hPa
Clouds: Overcast
Visibility: 10 miles , 16 km
Cloud details: Overcast 2100 ft
2017/03/30 02:35 KAVK 300235Z AUTO 31016G23KT 10SM OVC021 07/05 A2978 RMK AO2
KBVO - Bartlesville, Oklahoma, USA
Distance from station: ENE 61mi, 98km
Updated: Wed, 29-Mar-2017 8:53pm CDT
Partly cloudy
Partly cloudy
 Wind from WSW
Wind: WSW 12 mph , 19 km/h, Gust: 24 mph , 39 km/h
Temperature: 54°F , 12°C
Dew Point: 43°F , 6°C
Humidity: 67%
Barometer: 1005.8 hPa
Clouds: Partly cloudy
Visibility: 10 miles , 16 km
Cloud details: Few Clouds 2700 ft
Partly cloudy 11000 ft
2017/03/30 01:53 KBVO 300153Z AUTO 24010G21KT 10SM FEW027 SCT110 12/06 A2970 RMK AO2 SLP051 T01170061 TSNO
KBKN - Blackwell, Oklahoma, USA
Distance from station: NW 29mi, 47km
Updated: Fri, 24-Jun-2016 5:55pm CDT
NOT Current
Few Clouds
Few Clouds
 Wind from SSE
Wind: SSE 18 mph , 30 km/h, Gust: 28 mph , 44 km/h
Temperature: 93°F , 34°C
Heat Index: 100°F , 38°C
Dew Point: 72°F , 22°C
Humidity: 49%
Barometer: 1013.9 hPa
Clouds: Few Clouds
Visibility: 10 miles , 16 km
Cloud details: Few Clouds 5500 ft
Few Clouds 6500 ft
2016/06/24 22:55 KBKN 242255Z AUTO 15016G24KT 10SM FEW055 FEW065 34/22 A2994 RMK AO2
 
KGCM - Claremore, Oklahoma, USA
Distance from station: E 86mi, 138km
Updated: Wed, 29-Mar-2017 9:35pm CDT
Partly cloudy
Partly cloudy
 Wind from WSW
Wind: WSW 16 mph , 26 km/h, Gust: 20 mph , 31 km/h
Temperature: 55°F , 13°C
Dew Point: 45°F , 7°C
Humidity: 67%
Barometer: 1006.8 hPa
Clouds: Partly cloudy
Visibility: 10 miles , 16 km
Cloud details: Partly cloudy 11000 ft
2017/03/30 02:35 KGCM 300235Z AUTO 25014G17KT 10SM SCT110 13/07 A2973 RMK AO2 LTG DSNT N
KCQB - Chandler, Oklahoma, USA
Distance from station: SSE 50mi, 80km
Updated: Wed, 29-Mar-2017 9:35pm CDT
Clear
Clear
 Wind from W
Wind: W 13 mph , 20 km/h
Temperature: 48°F , 9°C
Wind Chill: 43°F , 6°C
Dew Point: 41°F , 5°C
Humidity: 76%
Barometer: 1008.8 hPa
Clouds: Clear
Visibility: 10 miles , 16 km
2017/03/30 02:35 KCQB 300235Z AUTO 27011KT 10SM CLR 09/05 A2979 RMK AO2 T00940053
KCUH - Cushing, Oklahoma, USA
Distance from station: SSE 35mi, 57km
Updated: Wed, 29-Mar-2017 9:35pm CDT
Mostly cloudy
Mostly cloudy
 Wind from W
Wind: W 20 mph , 31 km/h, Gust: 24 mph , 39 km/h
Temperature: 50°F , 10°C
Wind Chill: 44°F , 7°C
Dew Point: 41°F , 5°C
Humidity: 71%
Barometer: 1007.8 hPa
Clouds: Mostly cloudy
Visibility: 10 miles , 16 km
Cloud details: Mostly cloudy 2400 ft
2017/03/30 02:35 KCUH 300235Z AUTO 27017G21KT 10SM BKN024 10/05 A2976 RMK AO2 T00970053
 
KRQO - El Reno Muni, Oklahoma, USA
Distance from station: SW 85mi, 137km
Updated: Thu, 25-Aug-2016 11:55pm CDT
NOT Current
Nearby thunderstorm, Partly cloudy
Nearby thunderstorm, Partly cloudy
 Wind from E
Wind: E 9 mph , 15 km/h
Temperature: 72°F , 22°C
Dew Point: 70°F , 21°C
Humidity: 94%
Barometer: 1018.3 hPa
Summary: Nearby Thunderstorm
Clouds: Partly cloudy
Visibility: 10 miles , 16 km
Cloud details: Partly cloudy 6000 ft
2016/08/26 04:55 KRQO 260455Z AUTO 09008KT 10SM VCTS SCT060 22/21 A3007 RMK AO2 LTG DSNT W AND NW
KEND - Enid/Vance Afb, Oklahoma, USA
Distance from station: W 50mi, 81km
Updated: Wed, 29-Mar-2017 8:58pm CDT
Partly cloudy
Partly cloudy
 Wind from WNW
Wind: WNW 21 mph , 33 km/h, Gust: 28 mph , 44 km/h
Temperature: 46°F , 8°C
Wind Chill: 38°F , 3°C
Dew Point: 43°F , 6°C
Humidity: 87%
Barometer: 1007.5 hPa
Clouds: Partly cloudy
Visibility: 10 miles , 16 km
Cloud details: Few Clouds 2100 ft
Partly cloudy 4400 ft
2017/03/30 01:58 KEND 300158Z AUTO 30018G24KT 10SM FEW021 SCT044 08/06 A2975 RMK AO2 PK WND 28030/06 SLP077 T00830059 $
KWDG - Enid/Woodring, Oklahoma, USA
Distance from station: W 42mi, 67km
Updated: Wed, 29-Mar-2017 8:50pm CDT

 
2017/03/30 01:50 KWDG 300150Z E28017G28KT 10SM BKN021 OVC039 09/06 A2974 RMK LAST
 
KGOK - Guthrie, Oklahoma, USA
Distance from station: SSW 44mi, 71km
Updated: Wed, 29-Mar-2017 9:11pm CDT
Mostly cloudy
Mostly cloudy
 Wind from W
Wind: W 13 mph , 20 km/h
Temperature: 48°F , 9°C
Wind Chill: 43°F , 6°C
Dew Point: 41°F , 5°C
Humidity: 76%
Barometer: 1008.8 hPa
Clouds: Mostly cloudy
Visibility: 10 miles , 16 km
Cloud details: Mostly cloudy 2900 ft
2017/03/30 02:11 KGOK 300211Z AUTO 28011KT 10SM BKN029 09/05 A2979 RMK AO2 T00940050
KOUN - Norman/Westheime, Oklahoma, USA
Distance from station: SSW 84mi, 136km
Updated: Wed, 29-Mar-2017 9:35pm CDT
Partly cloudy
Partly cloudy
 Wind from W
Wind: W 9 mph , 15 km/h
Temperature: 46°F , 8°C
Wind Chill: 41°F , 5°C
Dew Point: 41°F , 5°C
Humidity: 82%
Barometer: 1009.8 hPa
Clouds: Partly cloudy
Visibility: 10 miles , 16 km
Cloud details: Partly cloudy 3000 ft
2017/03/30 02:35 KOUN 300235Z AUTO 28008KT 10SM SCT030 08/05 A2982 RMK AO2
KOKC - Oklahoma City, Oklahoma, USA
Distance from station: SSW 78mi, 126km
Updated: Wed, 29-Mar-2017 8:52pm CDT
Mostly cloudy
Mostly cloudy
 Wind from W
Wind: W 9 mph , 15 km/h
Temperature: 50°F , 10°C
Wind Chill: 46°F , 8°C
Dew Point: 41°F , 5°C
Humidity: 71%
Barometer: 1009.1 hPa
Clouds: Mostly cloudy
Visibility: 10 miles , 16 km
Cloud details: Mostly cloudy 3000 ft
Mostly cloudy 8000 ft
2017/03/30 01:52 KOKC 300152Z 28008KT 10SM BKN030 BKN080 10/05 A2980 RMK AO2 SLP090 T01000050 $
 
KPWA - Okla City/Wiley, Oklahoma, USA
Distance from station: SSW 70mi, 113km
Updated: Wed, 29-Mar-2017 8:53pm CDT
Overcast
Overcast
 Wind from W
Wind: W 9 mph , 15 km/h
Temperature: 50°F , 10°C
Wind Chill: 46°F , 8°C
Dew Point: 43°F , 6°C
Humidity: 76%
Barometer: 1009.1 hPa
Clouds: Overcast
Visibility: 10 miles , 16 km
Cloud details: Overcast 3200 ft
2017/03/30 01:53 KPWA 300153Z 28008KT 10SM OVC032 10/06 A2980 RMK AO2 SLP089 T01000056
KRCE - Okla City/Page, Oklahoma, USA
Distance from station: SW 78mi, 126km
Updated: Wed, 29-Mar-2017 8:55pm CDT
Clear
Clear
 Wind from WNW
Wind: WNW 16 mph , 26 km/h
Temperature: 48°F , 9°C
Wind Chill: 42°F , 6°C
Dew Point: 45°F , 7°C
Humidity: 87%
Barometer: 1010.2 hPa
Clouds: Clear
Visibility: 10 miles , 16 km
2017/03/30 01:55 KRCE 300155Z AUTO 29014KT 10SM CLR 09/07 A2983 RMK AO2
KOKM - Okmulgee, Oklahoma, USA
Distance from station: SE 79mi, 127km
Updated: Wed, 29-Mar-2017 9:35pm CDT
Mostly cloudy
Mostly cloudy
 Wind from W
Wind: W 15 mph , 24 km/h, Gust: 28 mph , 44 km/h
Temperature: 55°F , 13°C
Dew Point: 43°F , 6°C
Humidity: 63%
Barometer: 1007.1 hPa
Clouds: Mostly cloudy
Visibility: 10 miles , 16 km
Cloud details: Mostly cloudy 11000 ft
2017/03/30 02:35 KOKM 300235Z AUTO 27013G24KT 250V310 10SM BKN110 13/06 A2974 RMK AO2 T01250061
 
KPNC - Ponca City, Oklahoma, USA
Distance from station: N 22mi, 36km
Updated: Wed, 29-Mar-2017 9:43pm CDT
Overcast
Overcast
 Wind from W
Wind: W 14 mph , 22 km/h, Gust: 22 mph , 35 km/h
Temperature: 46°F , 8°C
Wind Chill: 40°F , 4°C
Dew Point: 45°F , 7°C
Humidity: 93%
Barometer: 1006.1 hPa
Clouds: Overcast
Visibility: 8 miles , 13 km
Cloud details: Partly cloudy 700 ft
Mostly cloudy 1100 ft
Overcast 1800 ft
2017/03/30 02:43 KPNC 300243Z AUTO 26012G19KT 8SM SCT007 BKN011 OVC018 08/07 A2971 RMK AO2 RAB31E43 P0000 T00830067
KSNL - Shawnee, Oklahoma, USA
Distance from station: S 74mi, 119km
Updated: Wed, 29-Mar-2017 9:35pm CDT
Mostly cloudy
Mostly cloudy
 Wind from W
Wind: W 9 mph , 15 km/h
Temperature: 50°F , 10°C
Wind Chill: 46°F , 8°C
Dew Point: 41°F , 5°C
Humidity: 71%
Barometer: 1009.1 hPa
Clouds: Mostly cloudy
Visibility: 10 miles , 16 km
Cloud details: Mostly cloudy 9000 ft
2017/03/30 02:35 KSNL 300235Z AUTO 28008KT 10SM BKN090 10/05 A2980 RMK AO2 T00990048
KSWO - Stillwater, Oklahoma, USA
Distance from station: S 17mi, 28km
Updated: Wed, 29-Mar-2017 8:53pm CDT
Overcast
Overcast
 Wind from W
Wind: W 14 mph , 22 km/h, Gust: 22 mph , 35 km/h
Temperature: 50°F , 10°C
Wind Chill: 45°F , 7°C
Dew Point: 41°F , 5°C
Humidity: 71%
Barometer: 1007.5 hPa
Clouds: Overcast
Visibility: 10 miles , 16 km
Cloud details: Overcast 2300 ft
2017/03/30 01:53 KSWO 300153Z AUTO 27012G19KT 10SM OVC023 10/05 A2975 RMK AO2 SLP072 T01000050 TSNO $
 
KTIK - Tinker Afb, Oklahoma, USA
Distance from station: SSW 72mi, 115km
Updated: Wed, 29-Mar-2017 9:45pm CDT
Partly cloudy
Partly cloudy
 Wind from WNW
Wind: WNW 12 mph , 19 km/h
Temperature: 50°F , 10°C
Wind Chill: 45°F , 7°C
Dew Point: 41°F , 5°C
Humidity: 71%
Barometer: 1008.8 hPa
Clouds: Partly cloudy
Visibility: 10 miles , 16 km
Cloud details: Partly cloudy 2900 ft
2017/03/30 02:45 KTIK 300245Z AUTO 29010KT 10SM SCT029 10/05 A2979 RMK AO2 SLP094
KTUL - Tulsa, Oklahoma, USA
Distance from station: ESE 65mi, 105km
Updated: Wed, 29-Mar-2017 8:53pm CDT
Mostly cloudy
Mostly cloudy
 Wind from W
Wind: W 15 mph , 24 km/h, Gust: 26 mph , 43 km/h
Temperature: 57°F , 14°C
Dew Point: 46°F , 8°C
Humidity: 67%
Barometer: 1006.1 hPa
Clouds: Mostly cloudy
Visibility: 10 miles , 16 km
Cloud details: Mostly cloudy 10000 ft
Mostly cloudy 20000 ft
2017/03/30 01:53 KTUL 300153Z 26013G23KT 10SM BKN100 BKN200 14/08 A2971 RMK AO2 SLP056 T01390078